sensor_id;sensor_type;location;lat;lon;timestamp;P1;durP1;ratioP1;P2;durP2;ratioP2
81180;SDS011;70650;51.408;7.132;2023-06-22T00:01:24;10.87;;;4.37;;
81180;SDS011;70650;51.408;7.132;2023-06-22T00:03:50;9.45;;;4.32;;
81180;SDS011;70650;51.408;7.132;2023-06-22T00:06:15;7.32;;;3.42;;
81180;SDS011;70650;51.408;7.132;2023-06-22T00:08:41;9.77;;;4.32;;
81180;SDS011;70650;51.408;7.132;2023-06-22T00:11:06;9.98;;;3.80;;
81180;SDS011;70650;51.408;7.132;2023-06-22T00:13:33;8.55;;;4.30;;
81180;SDS011;70650;51.408;7.132;2023-06-22T00:15:58;12.70;;;4.33;;
81180;SDS011;70650;51.408;7.132;2023-06-22T00:18:24;11.70;;;4.28;;
81180;SDS011;70650;51.408;7.132;2023-06-22T00:20:53;9.77;;;4.72;;
81180;SDS011;70650;51.408;7.132;2023-06-22T00:23:22;8.45;;;4.28;;
81180;SDS011;70650;51.408;7.132;2023-06-22T00:25:48;9.00;;;3.92;;
81180;SDS011;70650;51.408;7.132;2023-06-22T00:28:14;9.90;;;4.80;;
81180;SDS011;70650;51.408;7.132;2023-06-22T00:30:39;9.88;;;4.55;;
81180;SDS011;70650;51.408;7.132;2023-06-22T00:33:05;9.47;;;5.00;;
81180;SDS011;70650;51.408;7.132;2023-06-22T00:35:32;11.50;;;5.78;;
81180;SDS011;70650;51.408;7.132;2023-06-22T00:37:58;12.63;;;5.40;;
81180;SDS011;70650;51.408;7.132;2023-06-22T00:40:30;9.57;;;5.70;;
81180;SDS011;70650;51.408;7.132;2023-06-22T00:42:56;9.95;;;4.65;;
81180;SDS011;70650;51.408;7.132;2023-06-22T00:45:22;10.07;;;5.22;;
81180;SDS011;70650;51.408;7.132;2023-06-22T00:47:55;9.85;;;5.15;;
81180;SDS011;70650;51.408;7.132;2023-06-22T00:50:22;12.45;;;5.30;;
81180;SDS011;70650;51.408;7.132;2023-06-22T00:52:53;12.65;;;5.40;;
81180;SDS011;70650;51.408;7.132;2023-06-22T00:55:21;10.63;;;5.13;;
81180;SDS011;70650;51.408;7.132;2023-06-22T00:57:47;11.20;;;5.13;;
81180;SDS011;70650;51.408;7.132;2023-06-22T01:00:14;13.13;;;5.55;;
81180;SDS011;70650;51.408;7.132;2023-06-22T01:02:42;8.80;;;5.05;;
81180;SDS011;70650;51.408;7.132;2023-06-22T01:05:11;12.05;;;5.60;;
81180;SDS011;70650;51.408;7.132;2023-06-22T01:07:42;10.02;;;5.22;;
81180;SDS011;70650;51.408;7.132;2023-06-22T01:13:16;12.15;;;5.50;;
81180;SDS011;70650;51.408;7.132;2023-06-22T01:16:00;9.43;;;5.63;;
81180;SDS011;70650;51.408;7.132;2023-06-22T01:18:32;10.45;;;5.68;;
81180;SDS011;70650;51.408;7.132;2023-06-22T01:21:01;11.65;;;6.10;;
81180;SDS011;70650;51.408;7.132;2023-06-22T01:23:36;12.10;;;6.22;;
81180;SDS011;70650;51.408;7.132;2023-06-22T01:28:55;10.75;;;6.07;;
81180;SDS011;70650;51.408;7.132;2023-06-22T01:31:24;17.80;;;6.82;;
81180;SDS011;70650;51.408;7.132;2023-06-22T01:33:53;11.07;;;6.28;;
81180;SDS011;70650;51.408;7.132;2023-06-22T01:36:21;11.52;;;6.07;;
81180;SDS011;70650;51.408;7.132;2023-06-22T01:38:49;10.50;;;5.63;;
81180;SDS011;70650;51.408;7.132;2023-06-22T01:41:16;10.73;;;6.40;;
81180;SDS011;70650;51.408;7.132;2023-06-22T01:43:44;11.45;;;5.93;;
81180;SDS011;70650;51.408;7.132;2023-06-22T01:46:10;13.93;;;6.22;;
81180;SDS011;70650;51.408;7.132;2023-06-22T01:48:37;13.75;;;6.15;;
81180;SDS011;70650;51.408;7.132;2023-06-22T01:51:04;10.77;;;6.07;;
81180;SDS011;70650;51.408;7.132;2023-06-22T01:53:29;11.73;;;6.43;;
81180;SDS011;70650;51.408;7.132;2023-06-22T01:55:55;9.73;;;5.67;;
81180;SDS011;70650;51.408;7.132;2023-06-22T01:58:22;12.00;;;6.35;;
81180;SDS011;70650;51.408;7.132;2023-06-22T02:00:51;9.98;;;5.88;;
81180;SDS011;70650;51.408;7.132;2023-06-22T02:03:25;12.23;;;6.05;;
81180;SDS011;70650;51.408;7.132;2023-06-22T02:05:56;13.52;;;5.88;;
81180;SDS011;70650;51.408;7.132;2023-06-22T02:08:46;12.85;;;5.55;;
81180;SDS011;70650;51.408;7.132;2023-06-22T02:11:13;10.70;;;5.35;;
81180;SDS011;70650;51.408;7.132;2023-06-22T02:13:41;10.40;;;5.13;;
81180;SDS011;70650;51.408;7.132;2023-06-22T02:16:09;10.48;;;5.30;;
81180;SDS011;70650;51.408;7.132;2023-06-22T02:18:36;10.07;;;6.20;;
81180;SDS011;70650;51.408;7.132;2023-06-22T02:21:02;10.68;;;5.45;;
81180;SDS011;70650;51.408;7.132;2023-06-22T02:23:27;10.10;;;5.43;;
81180;SDS011;70650;51.408;7.132;2023-06-22T02:25:53;9.32;;;4.65;;
81180;SDS011;70650;51.408;7.132;2023-06-22T02:28:18;8.83;;;5.13;;
81180;SDS011;70650;51.408;7.132;2023-06-22T02:30:43;10.20;;;5.60;;
81180;SDS011;70650;51.408;7.132;2023-06-22T02:33:09;12.97;;;5.67;;
81180;SDS011;70650;51.408;7.132;2023-06-22T02:35:34;13.10;;;5.67;;
81180;SDS011;70650;51.408;7.132;2023-06-22T02:38:01;11.90;;;5.88;;
81180;SDS011;70650;51.408;7.132;2023-06-22T02:40:28;13.02;;;6.82;;
81180;SDS011;70650;51.408;7.132;2023-06-22T02:42:55;11.63;;;6.93;;
81180;SDS011;70650;51.408;7.132;2023-06-22T02:45:22;11.82;;;6.80;;
81180;SDS011;70650;51.408;7.132;2023-06-22T02:47:49;15.20;;;6.35;;
81180;SDS011;70650;51.408;7.132;2023-06-22T02:50:14;15.27;;;6.55;;
81180;SDS011;70650;51.408;7.132;2023-06-22T02:52:40;11.67;;;6.53;;
81180;SDS011;70650;51.408;7.132;2023-06-22T02:55:05;13.60;;;6.17;;
81180;SDS011;70650;51.408;7.132;2023-06-22T02:57:32;12.68;;;6.65;;
81180;SDS011;70650;51.408;7.132;2023-06-22T02:59:57;11.00;;;7.18;;
81180;SDS011;70650;51.408;7.132;2023-06-22T03:02:23;11.90;;;6.73;;
81180;SDS011;70650;51.408;7.132;2023-06-22T03:04:49;10.00;;;5.97;;
81180;SDS011;70650;51.408;7.132;2023-06-22T03:07:14;11.77;;;5.97;;
81180;SDS011;70650;51.408;7.132;2023-06-22T03:09:42;12.02;;;6.63;;
81180;SDS011;70650;51.408;7.132;2023-06-22T03:12:08;10.55;;;5.65;;
81180;SDS011;70650;51.408;7.132;2023-06-22T03:14:33;12.07;;;6.82;;
81180;SDS011;70650;51.408;7.132;2023-06-22T03:16:59;13.07;;;5.90;;
81180;SDS011;70650;51.408;7.132;2023-06-22T03:19:28;14.95;;;6.70;;
81180;SDS011;70650;51.408;7.132;2023-06-22T03:21:54;12.23;;;6.88;;
81180;SDS011;70650;51.408;7.132;2023-06-22T03:24:20;14.35;;;7.85;;
81180;SDS011;70650;51.408;7.132;2023-06-22T03:26:45;12.95;;;7.63;;
81180;SDS011;70650;51.408;7.132;2023-06-22T03:29:11;13.00;;;7.22;;
81180;SDS011;70650;51.408;7.132;2023-06-22T03:31:37;12.77;;;8.02;;
81180;SDS011;70650;51.408;7.132;2023-06-22T03:34:02;10.80;;;7.10;;
81180;SDS011;70650;51.408;7.132;2023-06-22T03:36:28;12.90;;;7.45;;
81180;SDS011;70650;51.408;7.132;2023-06-22T03:38:54;12.40;;;7.03;;
81180;SDS011;70650;51.408;7.132;2023-06-22T03:41:19;9.55;;;5.97;;
81180;SDS011;70650;51.408;7.132;2023-06-22T03:43:45;11.07;;;5.82;;
81180;SDS011;70650;51.408;7.132;2023-06-22T03:46:10;12.17;;;6.90;;
81180;SDS011;70650;51.408;7.132;2023-06-22T03:48:35;13.85;;;7.22;;
81180;SDS011;70650;51.408;7.132;2023-06-22T03:51:01;15.40;;;7.00;;
81180;SDS011;70650;51.408;7.132;2023-06-22T03:53:28;14.23;;;7.22;;
81180;SDS011;70650;51.408;7.132;2023-06-22T03:55:53;12.23;;;6.82;;
81180;SDS011;70650;51.408;7.132;2023-06-22T03:58:19;12.90;;;6.97;;
81180;SDS011;70650;51.408;7.132;2023-06-22T04:00:51;14.77;;;7.45;;
81180;SDS011;70650;51.408;7.132;2023-06-22T04:03:18;12.57;;;7.95;;
81180;SDS011;70650;51.408;7.132;2023-06-22T04:05:44;12.27;;;7.43;;
81180;SDS011;70650;51.408;7.132;2023-06-22T04:08:12;14.10;;;7.95;;
81180;SDS011;70650;51.408;7.132;2023-06-22T04:10:38;14.00;;;8.05;;
81180;SDS011;70650;51.408;7.132;2023-06-22T04:13:04;13.18;;;8.15;;
81180;SDS011;70650;51.408;7.132;2023-06-22T04:15:29;16.00;;;7.80;;
81180;SDS011;70650;51.408;7.132;2023-06-22T04:17:55;11.95;;;7.47;;
81180;SDS011;70650;51.408;7.132;2023-06-22T04:20:21;12.48;;;7.50;;
81180;SDS011;70650;51.408;7.132;2023-06-22T04:22:47;10.98;;;6.63;;
81180;SDS011;70650;51.408;7.132;2023-06-22T04:25:12;17.63;;;8.30;;
81180;SDS011;70650;51.408;7.132;2023-06-22T04:27:37;12.52;;;6.75;;
81180;SDS011;70650;51.408;7.132;2023-06-22T04:30:05;12.30;;;7.50;;
81180;SDS011;70650;51.408;7.132;2023-06-22T04:32:32;14.82;;;8.10;;
81180;SDS011;70650;51.408;7.132;2023-06-22T04:34:57;14.23;;;7.53;;
81180;SDS011;70650;51.408;7.132;2023-06-22T04:37:25;15.23;;;7.60;;
81180;SDS011;70650;51.408;7.132;2023-06-22T04:39:50;14.40;;;8.77;;
81180;SDS011;70650;51.408;7.132;2023-06-22T04:42:16;14.80;;;8.40;;
81180;SDS011;70650;51.408;7.132;2023-06-22T04:44:41;13.60;;;7.37;;
81180;SDS011;70650;51.408;7.132;2023-06-22T04:47:07;12.43;;;7.50;;
81180;SDS011;70650;51.408;7.132;2023-06-22T04:49:34;14.02;;;8.05;;
81180;SDS011;70650;51.408;7.132;2023-06-22T04:52:03;12.77;;;8.10;;
81180;SDS011;70650;51.408;7.132;2023-06-22T04:54:31;16.58;;;8.55;;
81180;SDS011;70650;51.408;7.132;2023-06-22T04:56:58;15.90;;;8.90;;
81180;SDS011;70650;51.408;7.132;2023-06-22T04:59:24;16.13;;;8.90;;
81180;SDS011;70650;51.408;7.132;2023-06-22T05:01:59;17.33;;;8.82;;
81180;SDS011;70650;51.408;7.132;2023-06-22T05:04:26;12.73;;;8.52;;
81180;SDS011;70650;51.408;7.132;2023-06-22T05:06:53;13.02;;;8.68;;
81180;SDS011;70650;51.408;7.132;2023-06-22T05:09:19;13.60;;;9.00;;
81180;SDS011;70650;51.408;7.132;2023-06-22T05:11:45;15.98;;;8.35;;
81180;SDS011;70650;51.408;7.132;2023-06-22T05:14:11;14.82;;;8.95;;
81180;SDS011;70650;51.408;7.132;2023-06-22T05:16:36;14.33;;;8.00;;
81180;SDS011;70650;51.408;7.132;2023-06-22T05:19:02;12.98;;;8.73;;
81180;SDS011;70650;51.408;7.132;2023-06-22T05:21:31;14.45;;;8.52;;
81180;SDS011;70650;51.408;7.132;2023-06-22T05:23:57;13.73;;;8.30;;
81180;SDS011;70650;51.408;7.132;2023-06-22T05:26:25;16.40;;;9.10;;
81180;SDS011;70650;51.408;7.132;2023-06-22T05:28:52;14.48;;;8.77;;
81180;SDS011;70650;51.408;7.132;2023-06-22T05:31:18;15.77;;;9.57;;
81180;SDS011;70650;51.408;7.132;2023-06-22T05:33:45;15.63;;;9.60;;
81180;SDS011;70650;51.408;7.132;2023-06-22T05:36:11;14.32;;;9.35;;
81180;SDS011;70650;51.408;7.132;2023-06-22T05:38:37;16.00;;;9.93;;
81180;SDS011;70650;51.408;7.132;2023-06-22T05:41:03;13.93;;;8.77;;
81180;SDS011;70650;51.408;7.132;2023-06-22T05:43:28;18.90;;;9.27;;
81180;SDS011;70650;51.408;7.132;2023-06-22T05:45:53;16.57;;;9.83;;
81180;SDS011;70650;51.408;7.132;2023-06-22T05:48:19;14.75;;;9.60;;
81180;SDS011;70650;51.408;7.132;2023-06-22T05:50:44;15.30;;;9.67;;
81180;SDS011;70650;51.408;7.132;2023-06-22T05:53:10;15.43;;;9.48;;
81180;SDS011;70650;51.408;7.132;2023-06-22T05:55:36;19.25;;;9.73;;
81180;SDS011;70650;51.408;7.132;2023-06-22T05:58:01;17.63;;;9.23;;
81180;SDS011;70650;51.408;7.132;2023-06-22T06:00:28;16.05;;;9.23;;
81180;SDS011;70650;51.408;7.132;2023-06-22T06:02:53;15.73;;;9.10;;
81180;SDS011;70650;51.408;7.132;2023-06-22T06:05:19;15.60;;;8.93;;
81180;SDS011;70650;51.408;7.132;2023-06-22T06:07:45;15.10;;;9.67;;
81180;SDS011;70650;51.408;7.132;2023-06-22T06:10:12;14.05;;;9.60;;
81180;SDS011;70650;51.408;7.132;2023-06-22T06:12:38;17.55;;;10.15;;
81180;SDS011;70650;51.408;7.132;2023-06-22T06:15:03;16.27;;;9.82;;
81180;SDS011;70650;51.408;7.132;2023-06-22T06:17:29;14.52;;;9.57;;
81180;SDS011;70650;51.408;7.132;2023-06-22T06:19:55;13.88;;;8.93;;
81180;SDS011;70650;51.408;7.132;2023-06-22T06:22:20;15.33;;;8.20;;
81180;SDS011;70650;51.408;7.132;2023-06-22T06:24:46;18.27;;;9.27;;
81180;SDS011;70650;51.408;7.132;2023-06-22T06:27:13;13.00;;;8.60;;
81180;SDS011;70650;51.408;7.132;2023-06-22T06:29:38;13.93;;;8.93;;
81180;SDS011;70650;51.408;7.132;2023-06-22T06:32:04;14.73;;;8.68;;
81180;SDS011;70650;51.408;7.132;2023-06-22T06:34:29;14.35;;;8.95;;
81180;SDS011;70650;51.408;7.132;2023-06-22T06:36:55;13.23;;;8.77;;
81180;SDS011;70650;51.408;7.132;2023-06-22T06:39:20;16.83;;;8.93;;
81180;SDS011;70650;51.408;7.132;2023-06-22T06:41:46;16.20;;;9.45;;
81180;SDS011;70650;51.408;7.132;2023-06-22T06:44:11;14.50;;;9.53;;
81180;SDS011;70650;51.408;7.132;2023-06-22T06:46:36;15.07;;;9.17;;
81180;SDS011;70650;51.408;7.132;2023-06-22T06:49:03;13.88;;;8.85;;
81180;SDS011;70650;51.408;7.132;2023-06-22T06:51:28;14.82;;;8.88;;
81180;SDS011;70650;51.408;7.132;2023-06-22T06:53:54;15.43;;;8.77;;
81180;SDS011;70650;51.408;7.132;2023-06-22T06:56:19;14.63;;;8.85;;
81180;SDS011;70650;51.408;7.132;2023-06-22T06:58:45;15.82;;;8.98;;
81180;SDS011;70650;51.408;7.132;2023-06-22T07:01:11;15.23;;;8.77;;
81180;SDS011;70650;51.408;7.132;2023-06-22T07:03:39;16.10;;;9.98;;
81180;SDS011;70650;51.408;7.132;2023-06-22T07:06:04;15.25;;;9.40;;
81180;SDS011;70650;51.408;7.132;2023-06-22T07:08:31;16.87;;;9.90;;
81180;SDS011;70650;51.408;7.132;2023-06-22T07:10:56;17.60;;;9.00;;
81180;SDS011;70650;51.408;7.132;2023-06-22T07:13:22;14.18;;;9.18;;
81180;SDS011;70650;51.408;7.132;2023-06-22T07:15:47;16.05;;;9.52;;
81180;SDS011;70650;51.408;7.132;2023-06-22T07:18:14;14.85;;;9.77;;
81180;SDS011;70650;51.408;7.132;2023-06-22T07:20:39;15.00;;;9.98;;
81180;SDS011;70650;51.408;7.132;2023-06-22T07:23:06;16.55;;;10.50;;
81180;SDS011;70650;51.408;7.132;2023-06-22T07:25:31;16.43;;;10.07;;
81180;SDS011;70650;51.408;7.132;2023-06-22T07:28:00;15.97;;;10.80;;
81180;SDS011;70650;51.408;7.132;2023-06-22T07:30:28;15.77;;;9.43;;
81180;SDS011;70650;51.408;7.132;2023-06-22T07:33:16;16.77;;;10.45;;
81180;SDS011;70650;51.408;7.132;2023-06-22T07:35:42;16.88;;;11.35;;
81180;SDS011;70650;51.408;7.132;2023-06-22T07:38:07;19.57;;;11.13;;
81180;SDS011;70650;51.408;7.132;2023-06-22T07:40:34;17.58;;;10.52;;
81180;SDS011;70650;51.408;7.132;2023-06-22T07:43:00;15.63;;;10.63;;
81180;SDS011;70650;51.408;7.132;2023-06-22T07:45:25;16.73;;;11.10;;
81180;SDS011;70650;51.408;7.132;2023-06-22T07:47:51;16.95;;;10.98;;
81180;SDS011;70650;51.408;7.132;2023-06-22T07:50:16;16.13;;;10.17;;
81180;SDS011;70650;51.408;7.132;2023-06-22T07:52:41;16.73;;;11.07;;
81180;SDS011;70650;51.408;7.132;2023-06-22T07:55:07;19.53;;;12.40;;
81180;SDS011;70650;51.408;7.132;2023-06-22T07:57:32;20.70;;;12.30;;
81180;SDS011;70650;51.408;7.132;2023-06-22T08:00:02;17.23;;;11.65;;
81180;SDS011;70650;51.408;7.132;2023-06-22T08:02:33;20.23;;;12.60;;
81180;SDS011;70650;51.408;7.132;2023-06-22T08:04:58;19.07;;;12.10;;
81180;SDS011;70650;51.408;7.132;2023-06-22T08:07:23;20.47;;;13.23;;
81180;SDS011;70650;51.408;7.132;2023-06-22T08:09:49;19.20;;;12.20;;
81180;SDS011;70650;51.408;7.132;2023-06-22T08:12:14;19.60;;;12.25;;
81180;SDS011;70650;51.408;7.132;2023-06-22T08:14:41;21.85;;;13.80;;
81180;SDS011;70650;51.408;7.132;2023-06-22T08:17:07;19.60;;;12.65;;
81180;SDS011;70650;51.408;7.132;2023-06-22T08:19:32;20.10;;;12.63;;
81180;SDS011;70650;51.408;7.132;2023-06-22T08:21:57;19.93;;;12.50;;
81180;SDS011;70650;51.408;7.132;2023-06-22T08:24:23;21.90;;;14.03;;
81180;SDS011;70650;51.408;7.132;2023-06-22T08:26:51;21.23;;;13.60;;
81180;SDS011;70650;51.408;7.132;2023-06-22T08:29:16;22.35;;;13.70;;
81180;SDS011;70650;51.408;7.132;2023-06-22T08:31:42;29.97;;;13.90;;
81180;SDS011;70650;51.408;7.132;2023-06-22T08:34:07;20.45;;;12.82;;
81180;SDS011;70650;51.408;7.132;2023-06-22T08:36:32;21.57;;;13.20;;
81180;SDS011;70650;51.408;7.132;2023-06-22T08:39:02;20.08;;;12.50;;
81180;SDS011;70650;51.408;7.132;2023-06-22T08:41:28;20.25;;;14.10;;
81180;SDS011;70650;51.408;7.132;2023-06-22T08:43:54;18.52;;;12.73;;
81180;SDS011;70650;51.408;7.132;2023-06-22T08:46:19;18.67;;;13.50;;
81180;SDS011;70650;51.408;7.132;2023-06-22T08:48:48;23.75;;;13.88;;
81180;SDS011;70650;51.408;7.132;2023-06-22T08:51:13;23.92;;;14.85;;
81180;SDS011;70650;51.408;7.132;2023-06-22T08:53:39;20.50;;;13.63;;
81180;SDS011;70650;51.408;7.132;2023-06-22T08:56:06;22.13;;;14.35;;
81180;SDS011;70650;51.408;7.132;2023-06-22T08:58:31;22.77;;;14.77;;
81180;SDS011;70650;51.408;7.132;2023-06-22T09:00:56;22.07;;;14.33;;
81180;SDS011;70650;51.408;7.132;2023-06-22T09:03:22;21.90;;;14.63;;
81180;SDS011;70650;51.408;7.132;2023-06-22T09:05:51;21.15;;;13.25;;
81180;SDS011;70650;51.408;7.132;2023-06-22T09:08:16;19.70;;;13.60;;
81180;SDS011;70650;51.408;7.132;2023-06-22T09:10:41;20.43;;;14.40;;
81180;SDS011;70650;51.408;7.132;2023-06-22T09:13:07;22.27;;;14.20;;
81180;SDS011;70650;51.408;7.132;2023-06-22T09:15:32;23.20;;;14.30;;
81180;SDS011;70650;51.408;7.132;2023-06-22T09:17:59;23.23;;;14.90;;
81180;SDS011;70650;51.408;7.132;2023-06-22T09:20:24;19.50;;;14.77;;
81180;SDS011;70650;51.408;7.132;2023-06-22T09:22:49;21.07;;;14.80;;
81180;SDS011;70650;51.408;7.132;2023-06-22T09:25:15;20.33;;;13.07;;
81180;SDS011;70650;51.408;7.132;2023-06-22T09:27:41;20.08;;;13.70;;
81180;SDS011;70650;51.408;7.132;2023-06-22T09:30:08;18.73;;;13.30;;
81180;SDS011;70650;51.408;7.132;2023-06-22T09:32:33;18.55;;;13.45;;
81180;SDS011;70650;51.408;7.132;2023-06-22T09:35:03;19.03;;;12.57;;
81180;SDS011;70650;51.408;7.132;2023-06-22T09:37:33;19.98;;;12.32;;
81180;SDS011;70650;51.408;7.132;2023-06-22T09:39:59;17.25;;;11.73;;
81180;SDS011;70650;51.408;7.132;2023-06-22T09:42:24;18.38;;;12.07;;
81180;SDS011;70650;51.408;7.132;2023-06-22T09:44:50;17.93;;;12.97;;
81180;SDS011;70650;51.408;7.132;2023-06-22T09:47:15;17.63;;;12.27;;
81180;SDS011;70650;51.408;7.132;2023-06-22T09:49:40;17.97;;;11.93;;
81180;SDS011;70650;51.408;7.132;2023-06-22T09:52:06;19.03;;;12.17;;
81180;SDS011;70650;51.408;7.132;2023-06-22T09:54:31;19.85;;;12.35;;
81180;SDS011;70650;51.408;7.132;2023-06-22T09:56:57;19.60;;;11.70;;
81180;SDS011;70650;51.408;7.132;2023-06-22T09:59:22;18.90;;;12.18;;
81180;SDS011;70650;51.408;7.132;2023-06-22T10:01:47;17.83;;;11.50;;
81180;SDS011;70650;51.408;7.132;2023-06-22T10:04:13;17.33;;;11.03;;
81180;SDS011;70650;51.408;7.132;2023-06-22T10:06:38;19.40;;;13.02;;
81180;SDS011;70650;51.408;7.132;2023-06-22T10:09:07;17.10;;;11.30;;
81180;SDS011;70650;51.408;7.132;2023-06-22T10:11:33;15.73;;;10.95;;
81180;SDS011;70650;51.408;7.132;2023-06-22T10:14:00;18.00;;;12.48;;
81180;SDS011;70650;51.408;7.132;2023-06-22T10:16:32;16.25;;;11.50;;
81180;SDS011;70650;51.408;7.132;2023-06-22T10:18:58;17.30;;;11.00;;
81180;SDS011;70650;51.408;7.132;2023-06-22T10:21:24;17.83;;;9.98;;
81180;SDS011;70650;51.408;7.132;2023-06-22T10:23:51;13.85;;;8.73;;
81180;SDS011;70650;51.408;7.132;2023-06-22T10:26:16;13.20;;;9.47;;
81180;SDS011;70650;51.408;7.132;2023-06-22T10:28:41;14.03;;;8.27;;
81180;SDS011;70650;51.408;7.132;2023-06-22T10:31:07;14.73;;;7.53;;
81180;SDS011;70650;51.408;7.132;2023-06-22T10:33:32;11.43;;;7.13;;
81180;SDS011;70650;51.408;7.132;2023-06-22T10:35:58;10.98;;;6.90;;
81180;SDS011;70650;51.408;7.132;2023-06-22T10:38:25;10.23;;;6.68;;
81180;SDS011;70650;51.408;7.132;2023-06-22T10:40:50;12.17;;;7.40;;
81180;SDS011;70650;51.408;7.132;2023-06-22T10:43:15;11.55;;;6.90;;
81180;SDS011;70650;51.408;7.132;2023-06-22T10:45:40;10.83;;;6.77;;
81180;SDS011;70650;51.408;7.132;2023-06-22T10:48:06;14.13;;;7.03;;
81180;SDS011;70650;51.408;7.132;2023-06-22T10:50:31;11.77;;;6.93;;
81180;SDS011;70650;51.408;7.132;2023-06-22T10:52:57;12.13;;;7.53;;
81180;SDS011;70650;51.408;7.132;2023-06-22T10:55:24;12.95;;;6.85;;
81180;SDS011;70650;51.408;7.132;2023-06-22T10:57:49;9.47;;;6.40;;
81180;SDS011;70650;51.408;7.132;2023-06-22T11:00:15;12.27;;;6.70;;
81180;SDS011;70650;51.408;7.132;2023-06-22T11:02:40;11.38;;;7.30;;
81180;SDS011;70650;51.408;7.132;2023-06-22T11:05:06;14.33;;;7.23;;
81180;SDS011;70650;51.408;7.132;2023-06-22T11:07:31;12.25;;;7.30;;
81180;SDS011;70650;51.408;7.132;2023-06-22T11:09:57;12.73;;;7.20;;
81180;SDS011;70650;51.408;7.132;2023-06-22T11:12:23;13.52;;;8.30;;
81180;SDS011;70650;51.408;7.132;2023-06-22T11:14:48;13.63;;;8.20;;
81180;SDS011;70650;51.408;7.132;2023-06-22T11:17:16;13.27;;;8.63;;
81180;SDS011;70650;51.408;7.132;2023-06-22T11:19:44;13.88;;;9.55;;
81180;SDS011;70650;51.408;7.132;2023-06-22T11:22:09;16.90;;;10.98;;
81180;SDS011;70650;51.408;7.132;2023-06-22T11:24:35;15.27;;;10.25;;
81180;SDS011;70650;51.408;7.132;2023-06-22T11:27:00;14.43;;;10.13;;
81180;SDS011;70650;51.408;7.132;2023-06-22T11:29:26;19.35;;;12.77;;
81180;SDS011;70650;51.408;7.132;2023-06-22T11:31:52;16.73;;;10.32;;
81180;SDS011;70650;51.408;7.132;2023-06-22T11:34:18;19.30;;;12.13;;
81180;SDS011;70650;51.408;7.132;2023-06-22T11:36:44;19.50;;;12.43;;
81180;SDS011;70650;51.408;7.132;2023-06-22T11:39:10;20.23;;;11.25;;
81180;SDS011;70650;51.408;7.132;2023-06-22T11:41:39;16.48;;;11.32;;
81180;SDS011;70650;51.408;7.132;2023-06-22T11:44:07;19.77;;;13.75;;
81180;SDS011;70650;51.408;7.132;2023-06-22T11:46:33;20.00;;;13.60;;
81180;SDS011;70650;51.408;7.132;2023-06-22T11:48:59;20.63;;;13.35;;
81180;SDS011;70650;51.408;7.132;2023-06-22T11:51:25;21.40;;;13.43;;
81180;SDS011;70650;51.408;7.132;2023-06-22T11:53:50;23.33;;;13.47;;
81180;SDS011;70650;51.408;7.132;2023-06-22T11:56:15;21.87;;;13.93;;
81180;SDS011;70650;51.408;7.132;2023-06-22T11:58:41;27.20;;;15.20;;
81180;SDS011;70650;51.408;7.132;2023-06-22T12:01:06;22.40;;;14.03;;
81180;SDS011;70650;51.408;7.132;2023-06-22T12:03:31;30.00;;;15.10;;
81180;SDS011;70650;51.408;7.132;2023-06-22T12:05:56;22.53;;;14.27;;
81180;SDS011;70650;51.408;7.132;2023-06-22T12:08:22;33.70;;;15.68;;
81180;SDS011;70650;51.408;7.132;2023-06-22T12:10:49;23.30;;;14.77;;
81180;SDS011;70650;51.408;7.132;2023-06-22T12:13:14;20.83;;;15.23;;
81180;SDS011;70650;51.408;7.132;2023-06-22T12:15:40;25.88;;;15.93;;
81180;SDS011;70650;51.408;7.132;2023-06-22T12:18:05;22.60;;;14.00;;
81180;SDS011;70650;51.408;7.132;2023-06-22T12:20:31;23.30;;;15.57;;
81180;SDS011;70650;51.408;7.132;2023-06-22T12:22:57;27.03;;;16.00;;
81180;SDS011;70650;51.408;7.132;2023-06-22T12:25:23;32.00;;;19.45;;
81180;SDS011;70650;51.408;7.132;2023-06-22T12:27:48;38.83;;;20.88;;
81180;SDS011;70650;51.408;7.132;2023-06-22T12:30:15;36.53;;;22.40;;
81180;SDS011;70650;51.408;7.132;2023-06-22T12:32:41;38.67;;;22.95;;
81180;SDS011;70650;51.408;7.132;2023-06-22T12:35:07;38.35;;;23.88;;
81180;SDS011;70650;51.408;7.132;2023-06-22T12:37:37;36.38;;;24.05;;
81180;SDS011;70650;51.408;7.132;2023-06-22T12:40:02;39.42;;;25.95;;
81180;SDS011;70650;51.408;7.132;2023-06-22T12:42:28;40.88;;;24.65;;
81180;SDS011;70650;51.408;7.132;2023-06-22T12:44:54;42.50;;;25.27;;
81180;SDS011;70650;51.408;7.132;2023-06-22T12:47:19;39.10;;;24.43;;
81180;SDS011;70650;51.408;7.132;2023-06-22T12:49:45;37.08;;;23.98;;
81180;SDS011;70650;51.408;7.132;2023-06-22T12:52:10;43.37;;;25.63;;
81180;SDS011;70650;51.408;7.132;2023-06-22T12:54:36;37.17;;;23.23;;
81180;SDS011;70650;51.408;7.132;2023-06-22T12:57:01;36.08;;;22.38;;
81180;SDS011;70650;51.408;7.132;2023-06-22T12:59:27;37.78;;;22.25;;
81180;SDS011;70650;51.408;7.132;2023-06-22T13:01:52;32.10;;;19.80;;
81180;SDS011;70650;51.408;7.132;2023-06-22T13:04:19;35.23;;;21.00;;
81180;SDS011;70650;51.408;7.132;2023-06-22T13:06:45;32.25;;;19.98;;
81180;SDS011;70650;51.408;7.132;2023-06-22T13:09:13;32.38;;;19.92;;
81180;SDS011;70650;51.408;7.132;2023-06-22T13:11:38;30.90;;;19.42;;
81180;SDS011;70650;51.408;7.132;2023-06-22T13:14:04;31.57;;;18.77;;
81180;SDS011;70650;51.408;7.132;2023-06-22T13:16:32;30.83;;;18.50;;
81180;SDS011;70650;51.408;7.132;2023-06-22T13:18:57;32.00;;;17.27;;
81180;SDS011;70650;51.408;7.132;2023-06-22T13:21:23;24.65;;;16.67;;
81180;SDS011;70650;51.408;7.132;2023-06-22T13:23:48;22.83;;;15.33;;
81180;SDS011;70650;51.408;7.132;2023-06-22T13:26:13;24.17;;;14.30;;
81180;SDS011;70650;51.408;7.132;2023-06-22T13:28:38;24.20;;;14.53;;
81180;SDS011;70650;51.408;7.132;2023-06-22T13:31:04;23.77;;;15.90;;
81180;SDS011;70650;51.408;7.132;2023-06-22T13:33:29;21.40;;;12.60;;
81180;SDS011;70650;51.408;7.132;2023-06-22T13:35:54;23.77;;;13.75;;
81180;SDS011;70650;51.408;7.132;2023-06-22T13:38:20;21.90;;;13.37;;
81180;SDS011;70650;51.408;7.132;2023-06-22T13:40:45;23.37;;;14.67;;
81180;SDS011;70650;51.408;7.132;2023-06-22T13:43:13;18.67;;;11.93;;
81180;SDS011;70650;51.408;7.132;2023-06-22T13:45:39;22.92;;;14.40;;
81180;SDS011;70650;51.408;7.132;2023-06-22T13:48:05;21.92;;;12.75;;
81180;SDS011;70650;51.408;7.132;2023-06-22T13:50:30;24.48;;;13.88;;
81180;SDS011;70650;51.408;7.132;2023-06-22T13:52:55;20.33;;;13.10;;
81180;SDS011;70650;51.408;7.132;2023-06-22T13:55:21;20.00;;;11.98;;
81180;SDS011;70650;51.408;7.132;2023-06-22T13:57:48;21.05;;;13.40;;
81180;SDS011;70650;51.408;7.132;2023-06-22T14:00:16;20.27;;;13.63;;
81180;SDS011;70650;51.408;7.132;2023-06-22T14:02:43;22.55;;;13.60;;
81180;SDS011;70650;51.408;7.132;2023-06-22T14:05:10;20.70;;;13.32;;
81180;SDS011;70650;51.408;7.132;2023-06-22T14:07:36;23.13;;;13.50;;
81180;SDS011;70650;51.408;7.132;2023-06-22T14:10:02;20.98;;;13.75;;
81180;SDS011;70650;51.408;7.132;2023-06-22T14:12:28;22.02;;;13.35;;
81180;SDS011;70650;51.408;7.132;2023-06-22T14:14:53;25.57;;;13.67;;
81180;SDS011;70650;51.408;7.132;2023-06-22T14:17:18;21.05;;;14.38;;
81180;SDS011;70650;51.408;7.132;2023-06-22T14:19:48;20.58;;;13.40;;
81180;SDS011;70650;51.408;7.132;2023-06-22T14:22:14;23.85;;;13.95;;
81180;SDS011;70650;51.408;7.132;2023-06-22T14:24:41;23.93;;;13.80;;
81180;SDS011;70650;51.408;7.132;2023-06-22T14:27:06;21.70;;;13.60;;
81180;SDS011;70650;51.408;7.132;2023-06-22T14:29:33;21.90;;;13.35;;
81180;SDS011;70650;51.408;7.132;2023-06-22T14:31:59;23.67;;;14.60;;